createdAt,value
2023-05-17T00:00:32.208Z,12.39
2023-05-17T00:03:15.867Z,12.37
2023-05-17T00:05:44.152Z,12.36
2023-05-17T00:08:12.644Z,12.37
2023-05-17T00:10:40.866Z,12.37
2023-05-17T00:13:09.147Z,12.36
2023-05-17T00:15:37.484Z,12.34
2023-05-17T00:18:06.001Z,12.31
2023-05-17T00:20:37.814Z,12.27
2023-05-17T00:23:06.172Z,12.20
2023-05-17T00:25:34.505Z,12.16
2023-05-17T00:28:02.905Z,12.16
2023-05-17T00:30:31.153Z,12.19
2023-05-17T00:32:59.541Z,12.23
2023-05-17T00:35:28.053Z,12.27
2023-05-17T00:37:56.605Z,12.30
2023-05-17T00:40:24.964Z,12.33
2023-05-17T00:42:53.333Z,12.33
2023-05-17T00:45:23.787Z,12.33
2023-05-17T00:47:52.115Z,12.33
2023-05-17T00:50:20.580Z,12.32
2023-05-17T00:52:50.901Z,12.32
2023-05-17T00:55:22.040Z,12.33
2023-05-17T00:57:50.365Z,12.37
2023-05-17T01:00:19.027Z,12.40
2023-05-17T01:02:49.024Z,12.46
2023-05-17T01:05:17.550Z,12.53
2023-05-17T01:07:45.958Z,12.57
2023-05-17T01:10:16.776Z,12.60
2023-05-17T01:13:10.672Z,12.60
2023-05-17T01:15:46.972Z,12.61
2023-05-17T01:18:26.302Z,12.60
2023-05-17T01:20:59.474Z,12.59
2023-05-17T01:24:03.801Z,12.57
2023-05-17T01:26:35.104Z,12.57
2023-05-17T01:29:05.730Z,12.60
2023-05-17T01:31:34.555Z,12.64
2023-05-17T01:34:10.015Z,12.68
2023-05-17T01:36:38.388Z,12.70
2023-05-17T01:39:06.761Z,12.71
2023-05-17T01:41:47.045Z,12.70
2023-05-17T01:44:50.751Z,12.68
2023-05-17T01:47:29.698Z,12.64
2023-05-17T01:50:00.871Z,12.61
2023-05-17T01:52:53.017Z,12.60
2023-05-17T01:55:33.127Z,12.63
2023-05-17T01:58:04.259Z,12.66
2023-05-17T02:00:33.229Z,12.69
2023-05-17T02:03:01.559Z,12.71
2023-05-17T02:05:30.212Z,12.71
2023-05-17T02:07:58.657Z,12.69
2023-05-17T02:10:27.127Z,12.68
2023-05-17T02:12:55.279Z,12.63
2023-05-17T02:15:23.627Z,12.59
2023-05-17T02:17:52.320Z,12.56
2023-05-17T02:20:21.255Z,12.53
2023-05-17T02:22:49.568Z,12.49
2023-05-17T02:25:17.971Z,12.44
2023-05-17T02:27:46.271Z,12.43
2023-05-17T02:30:18.088Z,12.44
2023-05-17T02:32:46.827Z,12.44
2023-05-17T02:35:15.400Z,12.45
2023-05-17T02:37:44.402Z,12.45
2023-05-17T02:40:14.425Z,12.40
2023-05-17T02:42:42.655Z,12.36
2023-05-17T02:45:11.614Z,12.35
2023-05-17T02:47:39.946Z,12.32
2023-05-17T02:50:08.802Z,12.28
2023-05-17T02:52:37.241Z,12.21
2023-05-17T02:55:07.436Z,12.18
2023-05-17T02:57:35.815Z,12.15
2023-05-17T03:00:06.221Z,12.11
2023-05-17T03:02:34.755Z,12.05
2023-05-17T03:05:03.658Z,12.01
2023-05-17T03:07:32.276Z,11.95
2023-05-17T03:10:00.597Z,11.89
2023-05-17T03:12:33.333Z,11.87
2023-05-17T03:15:01.588Z,11.84
2023-05-17T03:17:30.554Z,11.83
2023-05-17T03:19:58.996Z,11.78
2023-05-17T03:22:27.755Z,11.79
2023-05-17T03:24:56.344Z,11.78
2023-05-17T03:27:24.924Z,11.75
2023-05-17T03:29:53.294Z,11.71
2023-05-17T03:32:23.244Z,11.68
2023-05-17T03:34:51.854Z,11.66
2023-05-17T03:37:20.626Z,11.66
2023-05-17T03:39:50.605Z,11.64
2023-05-17T03:42:18.908Z,11.64
2023-05-17T03:44:47.272Z,11.64
2023-05-17T03:47:16.103Z,11.64
2023-05-17T03:49:45.202Z,11.65
2023-05-17T03:52:13.540Z,11.67
2023-05-17T03:54:41.790Z,11.70
2023-05-17T03:57:10.277Z,11.75
2023-05-17T03:59:38.766Z,11.80
2023-05-17T04:02:07.700Z,11.89
2023-05-17T04:04:36.909Z,11.95
2023-05-17T04:07:05.529Z,12.02
2023-05-17T04:09:36.663Z,12.11
2023-05-17T04:12:05.256Z,12.25
2023-05-17T04:14:33.578Z,12.39
2023-05-17T04:17:01.889Z,12.54
2023-05-17T04:19:30.830Z,12.67
2023-05-17T04:21:59.377Z,12.79
2023-05-17T04:24:28.349Z,12.86
2023-05-17T04:26:57.123Z,12.99
2023-05-17T04:29:26.580Z,13.08
2023-05-17T04:31:54.910Z,13.13
2023-05-17T04:34:24.145Z,13.18
2023-05-17T04:36:53.191Z,13.25
2023-05-17T04:39:21.590Z,13.32
2023-05-17T04:41:49.953Z,13.37
2023-05-17T04:44:19.332Z,13.43
2023-05-17T04:46:47.671Z,13.50
2023-05-17T04:49:16.562Z,13.62
2023-05-17T04:51:44.954Z,13.70
2023-05-17T04:54:13.349Z,13.73
2023-05-17T04:56:41.937Z,13.76
2023-05-17T04:59:14.422Z,13.82
2023-05-17T05:01:42.962Z,13.84
2023-05-17T05:04:12.170Z,13.92
2023-05-17T05:06:42.536Z,13.98
2023-05-17T05:09:11.646Z,14.08
2023-05-17T05:11:40.053Z,14.22
2023-05-17T05:14:08.762Z,14.43
2023-05-17T05:16:37.432Z,14.66
2023-05-17T05:19:06.834Z,14.93
2023-05-17T05:21:35.619Z,15.27
2023-05-17T05:24:04.471Z,15.59
2023-05-17T05:26:33.192Z,15.84
2023-05-17T05:29:02.262Z,16.03
2023-05-17T05:31:30.912Z,16.08
2023-05-17T05:34:02.532Z,16.12
2023-05-17T05:36:31.813Z,16.15
2023-05-17T05:39:00.673Z,16.24
2023-05-17T05:41:31.633Z,16.37
2023-05-17T05:44:00.052Z,16.33
2023-05-17T05:46:28.641Z,16.46
2023-05-17T05:48:58.305Z,16.59
2023-05-17T05:51:27.228Z,16.67
2023-05-17T05:53:55.757Z,16.68
2023-05-17T05:56:25.969Z,16.60
2023-05-17T05:58:58.219Z,16.64
2023-05-17T06:01:27.849Z,16.67
2023-05-17T06:03:56.198Z,16.77
2023-05-17T06:06:24.581Z,16.99
2023-05-17T06:08:53.142Z,17.26
2023-05-17T06:11:21.443Z,17.53
2023-05-17T06:13:49.902Z,17.70
2023-05-17T06:16:18.430Z,17.83
2023-05-17T06:18:48.747Z,17.80
2023-05-17T06:21:19.126Z,17.83
2023-05-17T06:23:47.472Z,17.98
2023-05-17T06:26:15.796Z,18.05
2023-05-17T06:28:44.107Z,18.19
2023-05-17T06:31:12.452Z,18.32
2023-05-17T06:33:40.695Z,18.45
2023-05-17T06:36:09.153Z,18.62
2023-05-17T06:38:37.658Z,18.92
2023-05-17T06:41:06.115Z,19.07
2023-05-17T06:43:35.758Z,19.46
2023-05-17T06:46:05.881Z,20.02
2023-05-17T06:48:34.317Z,20.69
2023-05-17T06:51:02.931Z,21.33
2023-05-17T06:53:31.268Z,21.89
2023-05-17T06:55:59.596Z,22.14
2023-05-17T06:58:27.894Z,22.26
2023-05-17T07:00:56.112Z,22.76
2023-05-17T07:03:24.435Z,23.18
2023-05-17T07:05:52.724Z,23.59
2023-05-17T07:08:21.257Z,23.95
2023-05-17T07:10:52.436Z,24.43
2023-05-17T07:13:20.897Z,24.80
2023-05-17T07:15:49.179Z,24.92
2023-05-17T07:18:17.993Z,25.22
2023-05-17T07:20:46.748Z,25.22
2023-05-17T07:23:15.253Z,25.29
2023-05-17T07:25:43.602Z,25.63
2023-05-17T07:28:12.054Z,25.70
2023-05-17T07:30:42.925Z,25.88
2023-05-17T07:33:11.635Z,25.75
2023-05-17T07:35:39.842Z,25.69
2023-05-17T07:38:08.086Z,26.04
2023-05-17T07:40:36.332Z,25.93
2023-05-17T07:43:04.521Z,25.75
2023-05-17T07:45:32.850Z,25.84
2023-05-17T07:48:01.621Z,25.81
2023-05-17T07:50:29.946Z,26.20
2023-05-17T07:52:59.290Z,26.34
2023-05-17T07:55:27.699Z,26.51
2023-05-17T07:57:56.340Z,26.71
2023-05-17T08:00:24.878Z,26.96
2023-05-17T08:02:53.407Z,27.31
2023-05-17T08:05:22.373Z,26.96
2023-05-17T08:07:50.722Z,27.06
2023-05-17T08:10:19.155Z,27.13
2023-05-17T08:12:47.467Z,27.00
2023-05-17T08:15:15.735Z,26.71
2023-05-17T08:17:44.087Z,27.00
2023-05-17T08:20:13.055Z,26.92
2023-05-17T08:22:41.623Z,27.22
2023-05-17T08:25:10.095Z,27.54
2023-05-17T08:27:38.739Z,27.64
2023-05-17T08:30:14.738Z,27.41
2023-05-17T08:32:45.149Z,27.19
2023-05-17T08:35:13.478Z,27.04
2023-05-17T08:37:43.115Z,27.06
2023-05-17T08:40:11.687Z,26.78
2023-05-17T08:42:41.010Z,26.50
2023-05-17T08:45:11.227Z,26.11
2023-05-17T08:47:42.470Z,26.10
2023-05-17T08:50:13.079Z,25.95
2023-05-17T08:52:46.413Z,26.08
2023-05-17T08:55:16.816Z,25.88
2023-05-17T08:57:45.486Z,25.98
2023-05-17T09:00:19.427Z,25.92
2023-05-17T09:02:48.910Z,25.79
2023-05-17T09:05:17.423Z,25.80
2023-05-17T09:07:46.700Z,25.77
2023-05-17T09:10:14.946Z,25.42
2023-05-17T09:12:44.701Z,25.04
2023-05-17T09:15:16.946Z,24.71
2023-05-17T09:17:52.387Z,24.18
2023-05-17T09:20:25.179Z,23.86
2023-05-17T09:22:53.543Z,23.41
2023-05-17T09:25:24.673Z,22.83
2023-05-17T09:27:59.143Z,22.65
2023-05-17T09:30:32.263Z,22.57
2023-05-17T09:33:12.353Z,22.43
2023-05-17T09:35:44.123Z,21.99
2023-05-17T09:38:14.190Z,21.62
2023-05-17T09:40:44.602Z,21.56
2023-05-17T09:43:14.021Z,21.48
2023-05-17T09:45:42.390Z,21.39
2023-05-17T09:48:17.068Z,21.46
2023-05-17T09:50:47.743Z,21.60
2023-05-17T09:53:42.509Z,21.59
2023-05-17T09:56:11.330Z,21.46
2023-05-17T09:58:39.701Z,21.45
2023-05-17T10:01:09.360Z,21.32
2023-05-17T10:03:38.646Z,21.30
2023-05-17T10:06:09.907Z,21.09
2023-05-17T10:08:48.750Z,20.85
2023-05-17T10:11:21.101Z,20.77
2023-05-17T10:14:23.893Z,20.61
2023-05-17T10:16:53.521Z,20.61
2023-05-17T10:19:22.012Z,20.55
2023-05-17T10:21:51.807Z,20.50
2023-05-17T10:24:24.273Z,20.34
2023-05-17T10:26:54.183Z,20.32
2023-05-17T10:29:23.800Z,20.28
2023-05-17T10:31:52.263Z,20.30
2023-05-17T10:34:21.101Z,20.26
2023-05-17T10:36:50.322Z,20.28
2023-05-17T10:39:19.232Z,20.26
2023-05-17T10:41:52.873Z,20.20
2023-05-17T10:44:22.566Z,20.18
2023-05-17T10:46:58.674Z,20.08
2023-05-17T10:49:31.162Z,20.09
2023-05-17T10:52:11.573Z,20.13
2023-05-17T10:54:42.930Z,20.07
2023-05-17T10:57:22.257Z,20.23
2023-05-17T11:00:04.020Z,20.29
2023-05-17T11:02:33.037Z,20.28
2023-05-17T11:05:02.625Z,20.41
2023-05-17T11:07:34.002Z,20.57
2023-05-17T11:10:08.657Z,20.74
2023-05-17T11:12:54.152Z,20.76
2023-05-17T11:15:26.894Z,20.78
2023-05-17T11:17:58.426Z,20.87
2023-05-17T11:20:27.094Z,20.93
2023-05-17T11:22:56.662Z,21.10
2023-05-17T11:25:28.938Z,21.28
2023-05-17T11:27:58.952Z,21.36
2023-05-17T11:30:32.628Z,21.44
2023-05-17T11:33:13.504Z,21.37
2023-05-17T11:35:54.190Z,21.30
2023-05-17T11:38:30.615Z,21.21
2023-05-17T11:41:26.369Z,21.19
2023-05-17T11:43:55.545Z,21.16
2023-05-17T11:46:24.878Z,21.19
2023-05-17T11:48:54.346Z,21.26
2023-05-17T11:51:25.106Z,21.14
2023-05-17T11:53:57.618Z,21.22
2023-05-17T11:56:41.935Z,21.26
2023-05-17T11:59:11.430Z,21.25
2023-05-17T12:01:51.208Z,21.24
2023-05-17T12:04:26.998Z,21.12
2023-05-17T12:06:56.275Z,21.16
2023-05-17T12:09:26.660Z,21.00
2023-05-17T12:11:56.047Z,20.88
2023-05-17T12:14:24.700Z,20.79
2023-05-17T12:16:56.590Z,20.89
2023-05-17T12:19:26.304Z,20.88
2023-05-17T12:21:54.619Z,20.83
2023-05-17T12:24:22.960Z,20.76
2023-05-17T12:26:51.273Z,20.73
2023-05-17T12:29:22.094Z,20.70
2023-05-17T12:31:53.420Z,20.62
2023-05-17T12:34:22.477Z,20.68
2023-05-17T12:36:52.819Z,20.73
2023-05-17T12:39:24.677Z,20.81
2023-05-17T12:41:54.030Z,20.84
2023-05-17T12:44:22.407Z,20.89
2023-05-17T12:46:54.181Z,20.92
2023-05-17T12:49:22.695Z,20.96
2023-05-17T12:51:51.088Z,21.01
2023-05-17T12:54:25.686Z,21.06
2023-05-17T12:56:55.118Z,21.10
2023-05-17T12:59:25.993Z,21.13
2023-05-17T13:01:58.334Z,21.12
2023-05-17T13:04:34.287Z,21.05
2023-05-17T13:07:05.329Z,20.99
2023-05-17T13:09:34.746Z,20.87
2023-05-17T13:12:07.395Z,20.79
2023-05-17T13:14:42.662Z,20.51
2023-05-17T13:17:26.002Z,20.41
2023-05-17T13:19:57.928Z,20.18
2023-05-17T13:22:26.806Z,20.06
2023-05-17T13:24:55.772Z,20.04
2023-05-17T13:27:24.055Z,19.99
2023-05-17T13:29:52.369Z,19.94
2023-05-17T13:32:21.636Z,19.88
2023-05-17T13:34:51.939Z,19.74
2023-05-17T13:37:21.394Z,19.67
2023-05-17T13:39:49.892Z,19.55
2023-05-17T13:42:18.123Z,19.48
2023-05-17T13:44:46.974Z,19.30
2023-05-17T13:47:15.963Z,19.16
2023-05-17T13:49:44.230Z,19.11
2023-05-17T13:52:13.551Z,19.08
2023-05-17T13:54:41.862Z,19.04
2023-05-17T13:57:10.198Z,19.03
2023-05-17T13:59:39.426Z,18.98
2023-05-17T14:02:09.278Z,18.94
2023-05-17T14:04:37.736Z,18.91
2023-05-17T14:07:06.249Z,18.86
2023-05-17T14:09:35.533Z,18.81
2023-05-17T14:12:04.591Z,18.76
2023-05-17T14:14:32.870Z,18.78
2023-05-17T14:17:02.019Z,18.79
2023-05-17T14:19:30.505Z,18.75
2023-05-17T14:21:59.034Z,18.71
2023-05-17T14:24:27.268Z,18.65
2023-05-17T14:26:56.463Z,18.54
2023-05-17T14:29:24.693Z,18.37
2023-05-17T14:31:52.951Z,18.30
2023-05-17T14:34:21.299Z,18.22
2023-05-17T14:36:49.540Z,18.22
2023-05-17T14:39:17.866Z,18.09
2023-05-17T14:41:46.364Z,18.06
2023-05-17T14:44:15.082Z,18.07
2023-05-17T14:46:43.399Z,18.08
2023-05-17T14:49:11.930Z,18.07
2023-05-17T14:51:40.474Z,18.01
2023-05-17T14:54:08.741Z,17.98
2023-05-17T14:56:36.961Z,17.94
2023-05-17T14:59:05.270Z,17.92
2023-05-17T15:01:33.687Z,17.87
2023-05-17T15:04:02.030Z,17.81
2023-05-17T15:06:30.717Z,17.74
2023-05-17T15:08:59.497Z,17.68
2023-05-17T15:11:27.828Z,17.66
2023-05-17T15:13:56.995Z,17.62
2023-05-17T15:16:25.933Z,17.58
2023-05-17T15:18:56.787Z,17.53
2023-05-17T15:21:26.247Z,17.50
2023-05-17T15:23:54.804Z,17.44
2023-05-17T15:26:23.227Z,17.39
2023-05-17T15:28:51.529Z,17.28
2023-05-17T15:31:19.814Z,17.16
2023-05-17T15:33:48.194Z,17.04
2023-05-17T15:36:16.769Z,16.98
2023-05-17T15:38:45.414Z,16.92
2023-05-17T15:41:16.209Z,16.81
2023-05-17T15:43:44.699Z,16.69
2023-05-17T15:46:12.955Z,16.66
2023-05-17T15:48:41.569Z,16.62
2023-05-17T15:51:10.305Z,16.54
2023-05-17T15:53:38.741Z,16.51
2023-05-17T15:56:07.940Z,16.48
2023-05-17T15:58:36.373Z,16.46
2023-05-17T16:01:06.283Z,16.42
2023-05-17T16:03:34.995Z,16.40
2023-05-17T16:06:04.617Z,16.38
2023-05-17T16:08:32.999Z,16.35
2023-05-17T16:11:02.548Z,16.31
2023-05-17T16:13:31.280Z,16.25
2023-05-17T16:16:00.254Z,16.20
2023-05-17T16:18:29.420Z,16.14
2023-05-17T16:21:00.206Z,16.09
2023-05-17T16:23:28.551Z,16.06
2023-05-17T16:25:56.914Z,16.02
2023-05-17T16:28:25.736Z,15.98
2023-05-17T16:30:54.682Z,15.91
2023-05-17T16:33:23.267Z,15.83
2023-05-17T16:35:52.250Z,15.78
2023-05-17T16:38:20.549Z,15.73
2023-05-17T16:40:48.948Z,15.68
2023-05-17T16:43:17.565Z,15.63
2023-05-17T16:45:46.540Z,15.58
2023-05-17T16:48:15.621Z,15.55
2023-05-17T16:50:43.949Z,15.51
2023-05-17T16:53:12.835Z,15.45
2023-05-17T16:55:42.250Z,15.40
2023-05-17T16:58:10.512Z,15.35
2023-05-17T17:00:38.952Z,15.31
2023-05-17T17:03:09.613Z,15.27
2023-05-17T17:05:38.518Z,15.21
2023-05-17T17:08:06.955Z,15.16
2023-05-17T17:10:36.175Z,15.10
2023-05-17T17:13:05.145Z,15.03
2023-05-17T17:15:33.380Z,14.97
2023-05-17T17:18:02.013Z,14.90
2023-05-17T17:20:30.962Z,14.85
2023-05-17T17:22:59.467Z,14.78
2023-05-17T17:25:28.286Z,14.72
2023-05-17T17:27:56.610Z,14.64
2023-05-17T17:30:24.960Z,14.58
2023-05-17T17:32:53.357Z,14.51
2023-05-17T17:35:21.857Z,14.42
2023-05-17T17:37:50.317Z,14.34
2023-05-17T17:40:18.631Z,14.26
2023-05-17T17:42:47.437Z,14.19
2023-05-17T17:45:16.445Z,14.12
2023-05-17T17:47:45.075Z,14.05
2023-05-17T17:50:13.410Z,13.98
2023-05-17T17:52:41.872Z,13.92
2023-05-17T17:55:10.992Z,13.85
2023-05-17T17:57:39.430Z,13.80
2023-05-17T18:00:11.822Z,13.73
2023-05-17T18:02:41.138Z,13.67
2023-05-17T18:05:11.146Z,13.64
2023-05-17T18:07:39.572Z,13.59
2023-05-17T18:10:08.508Z,13.55
2023-05-17T18:12:36.853Z,13.52
2023-05-17T18:15:06.211Z,13.48
2023-05-17T18:17:34.613Z,13.46
2023-05-17T18:20:04.092Z,13.44
2023-05-17T18:22:33.071Z,13.41
2023-05-17T18:25:01.579Z,13.38
2023-05-17T18:27:30.126Z,13.35
2023-05-17T18:29:58.405Z,13.31
2023-05-17T18:32:26.871Z,13.28
2023-05-17T18:34:55.333Z,13.24
2023-05-17T18:37:23.656Z,13.21
2023-05-17T18:39:52.012Z,13.18
2023-05-17T18:42:21.656Z,13.16
2023-05-17T18:44:49.894Z,13.12
2023-05-17T18:47:18.273Z,13.10
2023-05-17T18:49:47.277Z,13.08
2023-05-17T18:52:15.785Z,13.06
2023-05-17T18:54:44.202Z,13.04
2023-05-17T18:57:14.207Z,13.02
2023-05-17T18:59:42.466Z,12.98
2023-05-17T19:02:10.767Z,12.95
2023-05-17T19:04:39.142Z,12.90
2023-05-17T19:07:07.703Z,12.86
2023-05-17T19:09:36.161Z,12.83
2023-05-17T19:12:05.082Z,12.77
2023-05-17T19:14:33.350Z,12.74
2023-05-17T19:17:01.744Z,12.70
2023-05-17T19:19:31.489Z,12.69
2023-05-17T19:22:00.800Z,12.66
2023-05-17T19:24:29.058Z,12.65
2023-05-17T19:26:57.630Z,12.62
2023-05-17T19:29:27.470Z,12.58
2023-05-17T19:31:55.899Z,12.53
2023-05-17T19:34:24.334Z,12.50
2023-05-17T19:36:52.612Z,12.47
2023-05-17T19:39:20.972Z,12.44
2023-05-17T19:41:49.330Z,12.40
2023-05-17T19:44:17.672Z,12.37
2023-05-17T19:46:45.907Z,12.33
2023-05-17T19:49:16.040Z,12.28
2023-05-17T19:51:45.484Z,12.23
2023-05-17T19:54:13.795Z,12.20
2023-05-17T19:56:42.065Z,12.19
2023-05-17T19:59:10.481Z,12.22
2023-05-17T20:01:38.782Z,12.26
2023-05-17T20:04:07.201Z,12.31
2023-05-17T20:06:35.985Z,12.36
2023-05-17T20:09:04.610Z,12.38
2023-05-17T20:11:33.464Z,12.40
2023-05-17T20:14:01.993Z,12.39
2023-05-17T20:16:31.121Z,12.39
2023-05-17T20:19:01.096Z,12.40
2023-05-17T20:21:29.777Z,12.41
2023-05-17T20:24:03.584Z,12.40
2023-05-17T20:26:36.583Z,12.36
2023-05-17T20:29:07.626Z,12.34
2023-05-17T20:31:36.920Z,12.32
2023-05-17T20:34:06.646Z,12.33
2023-05-17T20:36:34.916Z,12.33
2023-05-17T20:39:03.691Z,12.31
2023-05-17T20:41:32.107Z,12.30
2023-05-17T20:44:00.794Z,12.28
2023-05-17T20:46:32.175Z,12.27
2023-05-17T20:49:01.224Z,12.27
2023-05-17T20:51:29.637Z,12.27
2023-05-17T20:53:57.911Z,12.28
2023-05-17T20:56:26.176Z,12.29
2023-05-17T20:58:54.689Z,12.30
2023-05-17T21:01:22.992Z,12.31
2023-05-17T21:03:51.651Z,12.32
2023-05-17T21:06:20.284Z,12.32
2023-05-17T21:08:48.646Z,12.30
2023-05-17T21:11:21.324Z,12.28
2023-05-17T21:13:49.872Z,12.24
2023-05-17T21:16:18.474Z,12.21
2023-05-17T21:18:47.049Z,12.18
2023-05-17T21:21:15.393Z,12.15
2023-05-17T21:23:43.685Z,12.15
2023-05-17T21:26:12.010Z,12.16
2023-05-17T21:28:40.476Z,12.19
2023-05-17T21:31:08.961Z,12.21
2023-05-17T21:33:37.293Z,12.22
2023-05-17T21:36:06.234Z,12.25
2023-05-17T21:38:34.612Z,12.28
2023-05-17T21:41:03.090Z,12.30
2023-05-17T21:43:31.344Z,12.31
2023-05-17T21:45:59.667Z,12.29
2023-05-17T21:48:28.122Z,12.25
2023-05-17T21:50:56.640Z,12.20
2023-05-17T21:53:24.977Z,12.16
2023-05-17T21:56:01.995Z,12.12
2023-05-17T21:58:32.137Z,12.08
2023-05-17T22:01:00.648Z,12.03
2023-05-17T22:03:29.511Z,11.98
2023-05-17T22:05:58.050Z,11.95
2023-05-17T22:08:26.445Z,11.95
2023-05-17T22:10:55.985Z,11.99
2023-05-17T22:13:26.529Z,12.05
2023-05-17T22:15:57.691Z,12.07
2023-05-17T22:18:27.368Z,12.08
2023-05-17T22:20:59.562Z,12.07
2023-05-17T22:23:28.312Z,12.05
2023-05-17T22:26:00.467Z,12.03
2023-05-17T22:28:29.009Z,12.01
2023-05-17T22:30:57.448Z,11.98
2023-05-17T22:33:27.465Z,11.95
2023-05-17T22:35:56.334Z,11.91
2023-05-17T22:38:24.679Z,11.83
2023-05-17T22:40:53.043Z,11.77
2023-05-17T22:43:26.100Z,11.73
2023-05-17T22:45:54.393Z,11.72
2023-05-17T22:48:22.706Z,11.71
2023-05-17T22:50:54.733Z,11.72
2023-05-17T22:53:22.880Z,11.74
2023-05-17T22:55:51.923Z,11.72
2023-05-17T22:58:20.362Z,11.70
2023-05-17T23:00:51.225Z,11.67
2023-05-17T23:03:20.822Z,11.61
2023-05-17T23:05:49.094Z,11.59
2023-05-17T23:08:17.372Z,11.56
2023-05-17T23:10:45.904Z,11.51
2023-05-17T23:13:14.728Z,11.47
2023-05-17T23:15:46.999Z,11.43
2023-05-17T23:18:16.243Z,11.45
2023-05-17T23:20:46.528Z,11.45
2023-05-17T23:23:16.174Z,11.41
2023-05-17T23:25:48.846Z,11.43
2023-05-17T23:28:18.780Z,11.44
2023-05-17T23:30:48.950Z,11.42
2023-05-17T23:33:19.213Z,11.46
2023-05-17T23:35:47.569Z,11.44
2023-05-17T23:38:15.844Z,11.41
2023-05-17T23:40:44.450Z,11.38
2023-05-17T23:43:12.698Z,11.34
2023-05-17T23:45:40.902Z,11.31
2023-05-17T23:48:10.681Z,11.28
2023-05-17T23:50:39.529Z,11.31
2023-05-17T23:53:09.842Z,11.33
2023-05-17T23:55:38.841Z,11.33
2023-05-17T23:58:07.205Z,11.34
